Aeroporto :
LOGIN :

Iscrizione | Disclaimer

   EN    FR    IT 

 










Sommario :    VFR   VFR Marginale   IFR   IFR Intensivo   IFR Molto Intensivo
Visibilità : 
Base nubi : 
>= 8 km
>= 3000ft
5 / 8 km
1000 / 3000 ft
1500m / 5 km
500 / 1000 ft
800 / 1500m
200 / 500 ft
< 800m
< 200 ft
Simboli :   Temporali  Nebbia  Neve Forte  Precipitazioni Forti  Vento > 20 kt
SIGMETs :   Varie  Temporali  Ghiacco  Turbolenza  Onda orograficha  Ceneri Vulcaniche






- Altitudine del aeroporto : 86 ft


LERT - Rota Navy

ULTIMO METAR :
  • 020000Z AUTO VRB02KT 7000 NCD 19/17 Q1015

METARs OBSOLETI :
  • 012300Z AUTO 00000KT 6000 NCD 19/18 Q1015
  • 012200Z AUTO 00000KT 6000 FEW007/// 19/18 Q1015

TAF TAF LERT
Valido dal 02 a 00 ore il 02 a 09 ore UTC


012300Z 0200/0209 16004KT 9999 SCT020
PROB40
TEMPO 0200/0208 4000 BR
PROB30
TEMPO 0202/0206 1500 BR



MetMap, La meteo Aeronautica in un colpo d'occhio ! - Copyright ORBIFLY Dicembre 2007 - Disclaimer

ORBIFLY MET'MAP TEAM :

Programmazione e sviluppo : Alexandra Zaïnal
Concezione : Baudouin d'Aumeries
Aiuto per la programmazione : Marc-Olivier Méhu
Supporto tecnico e logistico : Manuel Goepfert
Aiuto per la traduzione : Arnaldo La Scala

Contatto : metmap@orbifly.com




FONTI E CREDITI :

   NOAA